sensor_id;sensor_type;location;lat;lon;timestamp;P1;durP1;ratioP1;P2;durP2;ratioP2
30133;SDS011;16946;49.984;10.672;2024-01-30T00:00:19;7.55;;;6.07;;
30133;SDS011;16946;49.984;10.672;2024-01-30T00:00:51;8.32;;;5.97;;
30133;SDS011;16946;49.984;10.672;2024-01-30T00:01:21;9.40;;;6.40;;
30133;SDS011;16946;49.984;10.672;2024-01-30T00:01:52;12.20;;;6.33;;
30133;SDS011;16946;49.984;10.672;2024-01-30T00:02:22;8.83;;;5.80;;
30133;SDS011;16946;49.984;10.672;2024-01-30T00:02:53;9.27;;;6.30;;
30133;SDS011;16946;49.984;10.672;2024-01-30T00:03:24;7.30;;;5.90;;
30133;SDS011;16946;49.984;10.672;2024-01-30T00:03:54;7.70;;;5.93;;
30133;SDS011;16946;49.984;10.672;2024-01-30T00:04:25;9.07;;;6.13;;
30133;SDS011;16946;49.984;10.672;2024-01-30T00:04:55;10.07;;;6.10;;
30133;SDS011;16946;49.984;10.672;2024-01-30T00:05:26;7.40;;;6.00;;
30133;SDS011;16946;49.984;10.672;2024-01-30T00:05:56;7.13;;;5.60;;
30133;SDS011;16946;49.984;10.672;2024-01-30T00:06:27;9.10;;;6.10;;
30133;SDS011;16946;49.984;10.672;2024-01-30T00:06:57;8.77;;;6.17;;
30133;SDS011;16946;49.984;10.672;2024-01-30T00:07:28;8.67;;;5.93;;
30133;SDS011;16946;49.984;10.672;2024-01-30T00:07:58;8.13;;;6.40;;
30133;SDS011;16946;49.984;10.672;2024-01-30T00:08:29;7.50;;;6.50;;
30133;SDS011;16946;49.984;10.672;2024-01-30T00:09:00;9.03;;;6.17;;
30133;SDS011;16946;49.984;10.672;2024-01-30T00:09:30;7.50;;;5.77;;
30133;SDS011;16946;49.984;10.672;2024-01-30T00:10:01;10.03;;;6.30;;
30133;SDS011;16946;49.984;10.672;2024-01-30T00:10:31;7.20;;;5.87;;
30133;SDS011;16946;49.984;10.672;2024-01-30T00:11:02;11.00;;;7.30;;
30133;SDS011;16946;49.984;10.672;2024-01-30T00:11:33;10.03;;;6.97;;
30133;SDS011;16946;49.984;10.672;2024-01-30T00:12:03;11.87;;;6.17;;
30133;SDS011;16946;49.984;10.672;2024-01-30T00:12:34;8.77;;;5.40;;
30133;SDS011;16946;49.984;10.672;2024-01-30T00:13:04;7.47;;;6.80;;
30133;SDS011;16946;49.984;10.672;2024-01-30T00:13:35;7.57;;;6.47;;
30133;SDS011;16946;49.984;10.672;2024-01-30T00:14:05;8.00;;;6.23;;
30133;SDS011;16946;49.984;10.672;2024-01-30T00:14:36;8.03;;;6.33;;
30133;SDS011;16946;49.984;10.672;2024-01-30T00:15:06;8.53;;;6.67;;
30133;SDS011;16946;49.984;10.672;2024-01-30T00:15:39;10.00;;;6.43;;
30133;SDS011;16946;49.984;10.672;2024-01-30T00:16:19;9.00;;;6.30;;
30133;SDS011;16946;49.984;10.672;2024-01-30T00:16:56;8.30;;;6.40;;
30133;SDS011;16946;49.984;10.672;2024-01-30T00:17:27;10.87;;;6.73;;
30133;SDS011;16946;49.984;10.672;2024-01-30T00:17:57;7.00;;;5.93;;
30133;SDS011;16946;49.984;10.672;2024-01-30T00:18:28;8.23;;;6.73;;
30133;SDS011;16946;49.984;10.672;2024-01-30T00:18:58;8.80;;;6.17;;
30133;SDS011;16946;49.984;10.672;2024-01-30T00:19:29;6.80;;;5.87;;
30133;SDS011;16946;49.984;10.672;2024-01-30T00:19:59;7.43;;;5.93;;
30133;SDS011;16946;49.984;10.672;2024-01-30T00:20:30;10.50;;;6.23;;
30133;SDS011;16946;49.984;10.672;2024-01-30T00:21:00;6.30;;;5.70;;
30133;SDS011;16946;49.984;10.672;2024-01-30T00:21:31;8.83;;;7.23;;
30133;SDS011;16946;49.984;10.672;2024-01-30T00:22:01;9.53;;;6.23;;
30133;SDS011;16946;49.984;10.672;2024-01-30T00:22:32;10.13;;;6.97;;
30133;SDS011;16946;49.984;10.672;2024-01-30T00:23:03;10.33;;;6.40;;
30133;SDS011;16946;49.984;10.672;2024-01-30T00:23:33;9.37;;;6.17;;
30133;SDS011;16946;49.984;10.672;2024-01-30T00:24:04;8.93;;;6.07;;
30133;SDS011;16946;49.984;10.672;2024-01-30T00:24:34;10.63;;;7.20;;
30133;SDS011;16946;49.984;10.672;2024-01-30T00:25:05;8.60;;;5.97;;
30133;SDS011;16946;49.984;10.672;2024-01-30T00:25:36;7.97;;;6.13;;
30133;SDS011;16946;49.984;10.672;2024-01-30T00:26:06;7.53;;;5.90;;
30133;SDS011;16946;49.984;10.672;2024-01-30T00:26:37;9.63;;;6.33;;
30133;SDS011;16946;49.984;10.672;2024-01-30T00:27:08;10.20;;;6.47;;
30133;SDS011;16946;49.984;10.672;2024-01-30T00:27:38;7.53;;;6.27;;
30133;SDS011;16946;49.984;10.672;2024-01-30T00:28:09;7.53;;;6.00;;
30133;SDS011;16946;49.984;10.672;2024-01-30T00:28:39;6.70;;;6.03;;
30133;SDS011;16946;49.984;10.672;2024-01-30T00:29:10;7.33;;;5.67;;
30133;SDS011;16946;49.984;10.672;2024-01-30T00:29:40;9.10;;;6.20;;
30133;SDS011;16946;49.984;10.672;2024-01-30T00:30:11;9.40;;;6.47;;
30133;SDS011;16946;49.984;10.672;2024-01-30T00:30:42;5.97;;;5.38;;
30133;SDS011;16946;49.984;10.672;2024-01-30T00:31:12;6.57;;;5.63;;
30133;SDS011;16946;49.984;10.672;2024-01-30T00:31:43;9.37;;;5.63;;
30133;SDS011;16946;49.984;10.672;2024-01-30T00:32:13;15.33;;;6.23;;
30133;SDS011;16946;49.984;10.672;2024-01-30T00:32:44;7.13;;;6.10;;
30133;SDS011;16946;49.984;10.672;2024-01-30T00:33:15;8.20;;;5.93;;
30133;SDS011;16946;49.984;10.672;2024-01-30T00:33:46;10.57;;;5.77;;
30133;SDS011;16946;49.984;10.672;2024-01-30T00:34:16;9.30;;;5.97;;
30133;SDS011;16946;49.984;10.672;2024-01-30T00:34:47;7.43;;;6.40;;
30133;SDS011;16946;49.984;10.672;2024-01-30T00:35:17;7.23;;;5.70;;
30133;SDS011;16946;49.984;10.672;2024-01-30T00:35:48;6.77;;;6.00;;
30133;SDS011;16946;49.984;10.672;2024-01-30T00:36:18;12.83;;;6.63;;
30133;SDS011;16946;49.984;10.672;2024-01-30T00:36:49;7.83;;;5.87;;
30133;SDS011;16946;49.984;10.672;2024-01-30T00:37:19;9.57;;;6.77;;
30133;SDS011;16946;49.984;10.672;2024-01-30T00:37:50;11.00;;;6.33;;
30133;SDS011;16946;49.984;10.672;2024-01-30T00:38:20;8.10;;;6.00;;
30133;SDS011;16946;49.984;10.672;2024-01-30T00:38:51;8.10;;;6.63;;
30133;SDS011;16946;49.984;10.672;2024-01-30T00:39:22;9.20;;;6.10;;
30133;SDS011;16946;49.984;10.672;2024-01-30T00:39:53;7.87;;;6.47;;
30133;SDS011;16946;49.984;10.672;2024-01-30T00:40:23;7.40;;;6.00;;
30133;SDS011;16946;49.984;10.672;2024-01-30T00:40:54;8.50;;;5.97;;
30133;SDS011;16946;49.984;10.672;2024-01-30T00:41:24;7.67;;;6.20;;
30133;SDS011;16946;49.984;10.672;2024-01-30T00:41:55;10.50;;;5.93;;
30133;SDS011;16946;49.984;10.672;2024-01-30T00:42:25;6.90;;;6.00;;
30133;SDS011;16946;49.984;10.672;2024-01-30T00:42:56;8.80;;;5.27;;
30133;SDS011;16946;49.984;10.672;2024-01-30T00:43:26;9.47;;;5.90;;
30133;SDS011;16946;49.984;10.672;2024-01-30T00:43:57;7.90;;;6.27;;
30133;SDS011;16946;49.984;10.672;2024-01-30T00:44:28;6.43;;;5.83;;
30133;SDS011;16946;49.984;10.672;2024-01-30T00:44:58;9.20;;;5.93;;
30133;SDS011;16946;49.984;10.672;2024-01-30T00:45:29;9.83;;;6.10;;
30133;SDS011;16946;49.984;10.672;2024-01-30T00:45:59;9.40;;;6.47;;
30133;SDS011;16946;49.984;10.672;2024-01-30T00:46:30;9.77;;;6.30;;
30133;SDS011;16946;49.984;10.672;2024-01-30T00:47:00;9.87;;;6.33;;
30133;SDS011;16946;49.984;10.672;2024-01-30T00:47:31;8.23;;;6.07;;
30133;SDS011;16946;49.984;10.672;2024-01-30T00:48:03;7.80;;;6.28;;
30133;SDS011;16946;49.984;10.672;2024-01-30T00:48:34;9.02;;;6.20;;
30133;SDS011;16946;49.984;10.672;2024-01-30T00:49:04;8.57;;;6.40;;
30133;SDS011;16946;49.984;10.672;2024-01-30T00:49:35;8.97;;;6.60;;
30133;SDS011;16946;49.984;10.672;2024-01-30T00:50:06;9.70;;;5.88;;
30133;SDS011;16946;49.984;10.672;2024-01-30T00:50:37;8.77;;;6.63;;
30133;SDS011;16946;49.984;10.672;2024-01-30T00:51:07;9.13;;;6.60;;
30133;SDS011;16946;49.984;10.672;2024-01-30T00:51:38;9.47;;;6.60;;
30133;SDS011;16946;49.984;10.672;2024-01-30T00:52:08;8.73;;;7.00;;
30133;SDS011;16946;49.984;10.672;2024-01-30T00:52:39;10.20;;;6.67;;
30133;SDS011;16946;49.984;10.672;2024-01-30T00:53:11;8.23;;;6.78;;
30133;SDS011;16946;49.984;10.672;2024-01-30T00:53:42;10.50;;;6.85;;
30133;SDS011;16946;49.984;10.672;2024-01-30T00:54:12;8.90;;;6.57;;
30133;SDS011;16946;49.984;10.672;2024-01-30T00:54:43;9.80;;;6.13;;
30133;SDS011;16946;49.984;10.672;2024-01-30T00:55:14;8.70;;;6.40;;
30133;SDS011;16946;49.984;10.672;2024-01-30T00:55:44;10.57;;;6.60;;
30133;SDS011;16946;49.984;10.672;2024-01-30T00:56:15;9.07;;;6.30;;
30133;SDS011;16946;49.984;10.672;2024-01-30T00:56:48;8.65;;;6.13;;
30133;SDS011;16946;49.984;10.672;2024-01-30T00:57:18;8.83;;;6.03;;
30133;SDS011;16946;49.984;10.672;2024-01-30T00:57:49;8.60;;;5.80;;
30133;SDS011;16946;49.984;10.672;2024-01-30T00:58:19;8.77;;;5.80;;
30133;SDS011;16946;49.984;10.672;2024-01-30T00:58:50;9.93;;;5.90;;
30133;SDS011;16946;49.984;10.672;2024-01-30T00:59:20;7.90;;;5.80;;
30133;SDS011;16946;49.984;10.672;2024-01-30T00:59:51;7.43;;;5.47;;
30133;SDS011;16946;49.984;10.672;2024-01-30T01:00:22;6.87;;;5.93;;
30133;SDS011;16946;49.984;10.672;2024-01-30T01:00:58;9.55;;;5.90;;
30133;SDS011;16946;49.984;10.672;2024-01-30T01:01:29;7.43;;;5.87;;
30133;SDS011;16946;49.984;10.672;2024-01-30T01:01:59;11.13;;;6.33;;
30133;SDS011;16946;49.984;10.672;2024-01-30T01:02:30;8.63;;;6.00;;
30133;SDS011;16946;49.984;10.672;2024-01-30T01:03:01;6.53;;;5.93;;
30133;SDS011;16946;49.984;10.672;2024-01-30T01:03:31;7.97;;;6.13;;
30133;SDS011;16946;49.984;10.672;2024-01-30T01:04:02;7.77;;;6.07;;
30133;SDS011;16946;49.984;10.672;2024-01-30T01:04:32;7.17;;;6.20;;
30133;SDS011;16946;49.984;10.672;2024-01-30T01:05:03;9.77;;;6.67;;
30133;SDS011;16946;49.984;10.672;2024-01-30T01:05:34;7.53;;;6.07;;
30133;SDS011;16946;49.984;10.672;2024-01-30T01:06:05;6.80;;;5.60;;
30133;SDS011;16946;49.984;10.672;2024-01-30T01:06:35;7.90;;;6.57;;
30133;SDS011;16946;49.984;10.672;2024-01-30T01:07:06;7.47;;;6.60;;
30133;SDS011;16946;49.984;10.672;2024-01-30T01:07:36;7.83;;;6.40;;
30133;SDS011;16946;49.984;10.672;2024-01-30T01:08:07;7.70;;;6.43;;
30133;SDS011;16946;49.984;10.672;2024-01-30T01:08:39;6.95;;;6.15;;
30133;SDS011;16946;49.984;10.672;2024-01-30T01:09:12;11.50;;;6.27;;
30133;SDS011;16946;49.984;10.672;2024-01-30T01:09:43;9.18;;;6.78;;
30133;SDS011;16946;49.984;10.672;2024-01-30T01:10:14;7.23;;;5.67;;
30133;SDS011;16946;49.984;10.672;2024-01-30T01:10:46;7.95;;;6.47;;
30133;SDS011;16946;49.984;10.672;2024-01-30T01:11:16;8.60;;;6.13;;
30133;SDS011;16946;49.984;10.672;2024-01-30T01:11:47;10.03;;;6.37;;
30133;SDS011;16946;49.984;10.672;2024-01-30T01:12:17;7.73;;;6.20;;
30133;SDS011;16946;49.984;10.672;2024-01-30T01:12:48;9.27;;;6.57;;
30133;SDS011;16946;49.984;10.672;2024-01-30T01:13:19;7.57;;;5.97;;
30133;SDS011;16946;49.984;10.672;2024-01-30T01:13:50;7.67;;;6.50;;
30133;SDS011;16946;49.984;10.672;2024-01-30T01:14:20;14.60;;;7.37;;
30133;SDS011;16946;49.984;10.672;2024-01-30T01:14:51;8.43;;;6.23;;
30133;SDS011;16946;49.984;10.672;2024-01-30T01:15:21;8.70;;;6.97;;
30133;SDS011;16946;49.984;10.672;2024-01-30T01:15:52;12.73;;;6.43;;
30133;SDS011;16946;49.984;10.672;2024-01-30T01:16:22;8.57;;;6.47;;
30133;SDS011;16946;49.984;10.672;2024-01-30T01:16:53;11.83;;;6.93;;
30133;SDS011;16946;49.984;10.672;2024-01-30T01:17:23;9.23;;;7.07;;
30133;SDS011;16946;49.984;10.672;2024-01-30T01:17:54;9.17;;;7.27;;
30133;SDS011;16946;49.984;10.672;2024-01-30T01:18:24;11.20;;;6.90;;
30133;SDS011;16946;49.984;10.672;2024-01-30T01:18:55;12.70;;;7.87;;
30133;SDS011;16946;49.984;10.672;2024-01-30T01:19:26;14.40;;;8.37;;
30133;SDS011;16946;49.984;10.672;2024-01-30T01:19:56;15.43;;;9.50;;
30133;SDS011;16946;49.984;10.672;2024-01-30T01:20:27;11.87;;;9.27;;
30133;SDS011;16946;49.984;10.672;2024-01-30T01:20:57;11.93;;;9.03;;
30133;SDS011;16946;49.984;10.672;2024-01-30T01:21:28;10.07;;;7.90;;
30133;SDS011;16946;49.984;10.672;2024-01-30T01:21:59;12.07;;;9.73;;
30133;SDS011;16946;49.984;10.672;2024-01-30T01:22:29;17.23;;;10.87;;
30133;SDS011;16946;49.984;10.672;2024-01-30T01:23:00;14.00;;;10.00;;
30133;SDS011;16946;49.984;10.672;2024-01-30T01:23:30;16.63;;;9.93;;
30133;SDS011;16946;49.984;10.672;2024-01-30T01:24:01;12.73;;;9.50;;
30133;SDS011;16946;49.984;10.672;2024-01-30T01:24:31;12.93;;;9.50;;
30133;SDS011;16946;49.984;10.672;2024-01-30T01:25:02;14.40;;;9.70;;
30133;SDS011;16946;49.984;10.672;2024-01-30T01:25:33;16.55;;;10.52;;
30133;SDS011;16946;49.984;10.672;2024-01-30T01:26:04;15.73;;;10.70;;
30133;SDS011;16946;49.984;10.672;2024-01-30T01:26:35;14.73;;;10.25;;
30133;SDS011;16946;49.984;10.672;2024-01-30T01:27:06;13.13;;;10.20;;
30133;SDS011;16946;49.984;10.672;2024-01-30T01:27:36;14.77;;;10.17;;
30133;SDS011;16946;49.984;10.672;2024-01-30T01:28:11;13.18;;;10.30;;
30133;SDS011;16946;49.984;10.672;2024-01-30T01:28:41;11.07;;;9.83;;
30133;SDS011;16946;49.984;10.672;2024-01-30T01:29:12;12.47;;;8.33;;
30133;SDS011;16946;49.984;10.672;2024-01-30T01:29:42;11.40;;;8.50;;
30133;SDS011;16946;49.984;10.672;2024-01-30T01:30:13;11.23;;;7.73;;
30133;SDS011;16946;49.984;10.672;2024-01-30T01:30:48;11.77;;;7.20;;
30133;SDS011;16946;49.984;10.672;2024-01-30T01:31:19;9.47;;;7.20;;
30133;SDS011;16946;49.984;10.672;2024-01-30T01:31:52;17.25;;;8.55;;
30133;SDS011;16946;49.984;10.672;2024-01-30T01:32:23;12.30;;;7.83;;
30133;SDS011;16946;49.984;10.672;2024-01-30T01:32:53;11.90;;;7.77;;
30133;SDS011;16946;49.984;10.672;2024-01-30T01:33:27;11.00;;;8.82;;
30133;SDS011;16946;49.984;10.672;2024-01-30T01:33:58;12.80;;;9.13;;
30133;SDS011;16946;49.984;10.672;2024-01-30T01:34:28;12.03;;;8.53;;
30133;SDS011;16946;49.984;10.672;2024-01-30T01:34:59;9.73;;;7.50;;
30133;SDS011;16946;49.984;10.672;2024-01-30T01:35:29;13.10;;;8.33;;
30133;SDS011;16946;49.984;10.672;2024-01-30T01:36:00;18.97;;;8.90;;
30133;SDS011;16946;49.984;10.672;2024-01-30T01:36:32;12.35;;;8.27;;
30133;SDS011;16946;49.984;10.672;2024-01-30T01:37:03;12.37;;;8.83;;
30133;SDS011;16946;49.984;10.672;2024-01-30T01:37:33;12.53;;;9.20;;
30133;SDS011;16946;49.984;10.672;2024-01-30T01:38:04;17.60;;;8.80;;
30133;SDS011;16946;49.984;10.672;2024-01-30T01:38:34;14.30;;;9.23;;
30133;SDS011;16946;49.984;10.672;2024-01-30T01:39:05;13.17;;;9.53;;
30133;SDS011;16946;49.984;10.672;2024-01-30T01:39:35;12.47;;;9.00;;
30133;SDS011;16946;49.984;10.672;2024-01-30T01:40:06;9.63;;;8.20;;
30133;SDS011;16946;49.984;10.672;2024-01-30T01:40:37;12.90;;;8.93;;
30133;SDS011;16946;49.984;10.672;2024-01-30T01:41:09;11.70;;;8.77;;
30133;SDS011;16946;49.984;10.672;2024-01-30T01:41:40;15.30;;;8.30;;
30133;SDS011;16946;49.984;10.672;2024-01-30T01:42:10;10.87;;;7.43;;
30133;SDS011;16946;49.984;10.672;2024-01-30T01:42:41;12.73;;;7.57;;
30133;SDS011;16946;49.984;10.672;2024-01-30T01:43:11;9.93;;;7.30;;
30133;SDS011;16946;49.984;10.672;2024-01-30T01:43:42;10.80;;;7.80;;
30133;SDS011;16946;49.984;10.672;2024-01-30T01:44:12;10.10;;;7.27;;
30133;SDS011;16946;49.984;10.672;2024-01-30T01:44:43;8.57;;;6.90;;
30133;SDS011;16946;49.984;10.672;2024-01-30T01:45:13;12.03;;;7.17;;
30133;SDS011;16946;49.984;10.672;2024-01-30T01:45:44;10.07;;;6.80;;
30133;SDS011;16946;49.984;10.672;2024-01-30T01:46:16;9.40;;;5.83;;
30133;SDS011;16946;49.984;10.672;2024-01-30T01:46:47;10.65;;;5.72;;
30133;SDS011;16946;49.984;10.672;2024-01-30T01:47:18;8.85;;;5.63;;
30133;SDS011;16946;49.984;10.672;2024-01-30T01:47:52;7.17;;;5.60;;
30133;SDS011;16946;49.984;10.672;2024-01-30T01:48:23;7.13;;;5.50;;
30133;SDS011;16946;49.984;10.672;2024-01-30T01:48:54;9.13;;;5.55;;
30133;SDS011;16946;49.984;10.672;2024-01-30T01:49:27;7.35;;;5.43;;
30133;SDS011;16946;49.984;10.672;2024-01-30T01:49:58;8.18;;;4.95;;
30133;SDS011;16946;49.984;10.672;2024-01-30T01:50:29;8.50;;;5.30;;
30133;SDS011;16946;49.984;10.672;2024-01-30T01:51:00;5.25;;;4.50;;
30133;SDS011;16946;49.984;10.672;2024-01-30T01:51:33;7.72;;;5.05;;
30133;SDS011;16946;49.984;10.672;2024-01-30T01:52:05;4.88;;;4.20;;
30133;SDS011;16946;49.984;10.672;2024-01-30T01:52:37;6.85;;;5.68;;
30133;SDS011;16946;49.984;10.672;2024-01-30T01:53:08;6.80;;;5.53;;
30133;SDS011;16946;49.984;10.672;2024-01-30T01:53:39;6.93;;;5.05;;
30133;SDS011;16946;49.984;10.672;2024-01-30T01:54:10;6.63;;;5.13;;
30133;SDS011;16946;49.984;10.672;2024-01-30T01:54:41;5.15;;;4.65;;
30133;SDS011;16946;49.984;10.672;2024-01-30T01:55:12;5.40;;;4.90;;
30133;SDS011;16946;49.984;10.672;2024-01-30T01:55:45;5.63;;;4.93;;
30133;SDS011;16946;49.984;10.672;2024-01-30T01:56:15;8.48;;;5.13;;
30133;SDS011;16946;49.984;10.672;2024-01-30T01:56:46;8.15;;;5.45;;
30133;SDS011;16946;49.984;10.672;2024-01-30T01:57:17;6.93;;;5.60;;
30133;SDS011;16946;49.984;10.672;2024-01-30T01:57:48;7.03;;;4.93;;
30133;SDS011;16946;49.984;10.672;2024-01-30T01:58:18;8.53;;;5.17;;
30133;SDS011;16946;49.984;10.672;2024-01-30T01:58:51;5.97;;;5.13;;
30133;SDS011;16946;49.984;10.672;2024-01-30T01:59:25;6.57;;;5.80;;
30133;SDS011;16946;49.984;10.672;2024-01-30T01:59:56;6.47;;;5.47;;
30133;SDS011;16946;49.984;10.672;2024-01-30T02:00:26;7.37;;;6.10;;
30133;SDS011;16946;49.984;10.672;2024-01-30T02:00:57;6.43;;;5.80;;
30133;SDS011;16946;49.984;10.672;2024-01-30T02:01:29;6.47;;;5.47;;
30133;SDS011;16946;49.984;10.672;2024-01-30T02:02:01;9.50;;;5.72;;
30133;SDS011;16946;49.984;10.672;2024-01-30T02:02:35;6.03;;;5.13;;
30133;SDS011;16946;49.984;10.672;2024-01-30T02:03:06;7.53;;;5.50;;
30133;SDS011;16946;49.984;10.672;2024-01-30T02:03:38;7.65;;;5.55;;
30133;SDS011;16946;49.984;10.672;2024-01-30T02:04:08;7.73;;;5.50;;
30133;SDS011;16946;49.984;10.672;2024-01-30T02:04:39;7.57;;;5.67;;
30133;SDS011;16946;49.984;10.672;2024-01-30T02:05:10;6.57;;;5.87;;
30133;SDS011;16946;49.984;10.672;2024-01-30T02:05:41;7.63;;;5.20;;
30133;SDS011;16946;49.984;10.672;2024-01-30T02:06:13;7.00;;;5.28;;
30133;SDS011;16946;49.984;10.672;2024-01-30T02:06:44;6.65;;;4.93;;
30133;SDS011;16946;49.984;10.672;2024-01-30T02:07:15;7.03;;;5.70;;
30133;SDS011;16946;49.984;10.672;2024-01-30T02:07:46;6.80;;;5.20;;
30133;SDS011;16946;49.984;10.672;2024-01-30T02:08:17;7.10;;;5.37;;
30133;SDS011;16946;49.984;10.672;2024-01-30T02:08:47;5.80;;;4.77;;
30133;SDS011;16946;49.984;10.672;2024-01-30T02:09:18;10.37;;;5.70;;
30133;SDS011;16946;49.984;10.672;2024-01-30T02:09:48;10.77;;;5.30;;
30133;SDS011;16946;49.984;10.672;2024-01-30T02:10:19;8.23;;;6.17;;
30133;SDS011;16946;49.984;10.672;2024-01-30T02:10:49;7.87;;;5.80;;
30133;SDS011;16946;49.984;10.672;2024-01-30T02:11:21;10.43;;;6.17;;
30133;SDS011;16946;49.984;10.672;2024-01-30T02:11:52;7.43;;;6.10;;
30133;SDS011;16946;49.984;10.672;2024-01-30T02:12:24;7.53;;;6.03;;
30133;SDS011;16946;49.984;10.672;2024-01-30T02:12:54;6.77;;;5.30;;
30133;SDS011;16946;49.984;10.672;2024-01-30T02:13:25;8.10;;;6.33;;
30133;SDS011;16946;49.984;10.672;2024-01-30T02:13:55;8.03;;;5.73;;
30133;SDS011;16946;49.984;10.672;2024-01-30T02:14:26;11.10;;;6.33;;
30133;SDS011;16946;49.984;10.672;2024-01-30T02:14:57;9.07;;;5.93;;
30133;SDS011;16946;49.984;10.672;2024-01-30T02:15:28;11.80;;;6.30;;
30133;SDS011;16946;49.984;10.672;2024-01-30T02:15:59;9.55;;;7.03;;
30133;SDS011;16946;49.984;10.672;2024-01-30T02:16:30;7.40;;;6.00;;
30133;SDS011;16946;49.984;10.672;2024-01-30T02:17:01;8.60;;;6.28;;
30133;SDS011;16946;49.984;10.672;2024-01-30T02:17:31;10.60;;;6.63;;
30133;SDS011;16946;49.984;10.672;2024-01-30T02:18:02;8.30;;;6.33;;
30133;SDS011;16946;49.984;10.672;2024-01-30T02:18:32;6.40;;;5.60;;
30133;SDS011;16946;49.984;10.672;2024-01-30T02:19:03;8.13;;;6.57;;
30133;SDS011;16946;49.984;10.672;2024-01-30T02:19:33;7.67;;;6.13;;
30133;SDS011;16946;49.984;10.672;2024-01-30T02:20:04;12.27;;;6.13;;
30133;SDS011;16946;49.984;10.672;2024-01-30T02:20:35;8.80;;;6.13;;
30133;SDS011;16946;49.984;10.672;2024-01-30T02:21:07;6.75;;;6.05;;
30133;SDS011;16946;49.984;10.672;2024-01-30T02:21:38;9.10;;;6.60;;
30133;SDS011;16946;49.984;10.672;2024-01-30T02:22:09;6.88;;;6.05;;
30133;SDS011;16946;49.984;10.672;2024-01-30T02:22:40;7.40;;;6.43;;
30133;SDS011;16946;49.984;10.672;2024-01-30T02:23:11;7.18;;;6.47;;
30133;SDS011;16946;49.984;10.672;2024-01-30T02:23:46;9.18;;;6.28;;
30133;SDS011;16946;49.984;10.672;2024-01-30T02:24:17;7.47;;;5.97;;
30133;SDS011;16946;49.984;10.672;2024-01-30T02:24:47;6.87;;;6.13;;
30133;SDS011;16946;49.984;10.672;2024-01-30T02:25:18;8.30;;;6.53;;
30133;SDS011;16946;49.984;10.672;2024-01-30T02:25:48;9.13;;;6.13;;
30133;SDS011;16946;49.984;10.672;2024-01-30T02:26:19;7.87;;;5.93;;
30133;SDS011;16946;49.984;10.672;2024-01-30T02:26:49;7.37;;;6.20;;
30133;SDS011;16946;49.984;10.672;2024-01-30T02:27:20;7.50;;;5.97;;
30133;SDS011;16946;49.984;10.672;2024-01-30T02:27:50;8.53;;;6.23;;
30133;SDS011;16946;49.984;10.672;2024-01-30T02:28:21;6.90;;;5.77;;
30133;SDS011;16946;49.984;10.672;2024-01-30T02:28:51;8.03;;;6.20;;
30133;SDS011;16946;49.984;10.672;2024-01-30T02:29:22;7.17;;;5.90;;
30133;SDS011;16946;49.984;10.672;2024-01-30T02:29:52;6.37;;;5.67;;
30133;SDS011;16946;49.984;10.672;2024-01-30T02:30:23;9.67;;;7.00;;
30133;SDS011;16946;49.984;10.672;2024-01-30T02:30:53;7.70;;;6.43;;
30133;SDS011;16946;49.984;10.672;2024-01-30T02:31:25;11.93;;;6.20;;
30133;SDS011;16946;49.984;10.672;2024-01-30T02:31:55;7.00;;;6.30;;
30133;SDS011;16946;49.984;10.672;2024-01-30T02:32:26;6.70;;;6.03;;
30133;SDS011;16946;49.984;10.672;2024-01-30T02:32:56;8.97;;;6.60;;
30133;SDS011;16946;49.984;10.672;2024-01-30T02:33:27;9.90;;;6.47;;
30133;SDS011;16946;49.984;10.672;2024-01-30T02:33:57;7.10;;;6.40;;
30133;SDS011;16946;49.984;10.672;2024-01-30T02:34:28;8.90;;;7.00;;
30133;SDS011;16946;49.984;10.672;2024-01-30T02:34:58;10.20;;;7.60;;
30133;SDS011;16946;49.984;10.672;2024-01-30T02:35:29;10.73;;;6.87;;
30133;SDS011;16946;49.984;10.672;2024-01-30T02:35:59;7.97;;;6.40;;
30133;SDS011;16946;49.984;10.672;2024-01-30T02:36:30;8.80;;;7.03;;
30133;SDS011;16946;49.984;10.672;2024-01-30T02:37:00;8.17;;;6.70;;
30133;SDS011;16946;49.984;10.672;2024-01-30T02:37:31;9.63;;;6.83;;
30133;SDS011;16946;49.984;10.672;2024-01-30T02:38:02;11.23;;;7.10;;
30133;SDS011;16946;49.984;10.672;2024-01-30T02:38:32;8.30;;;6.60;;
30133;SDS011;16946;49.984;10.672;2024-01-30T02:39:03;9.17;;;6.83;;
30133;SDS011;16946;49.984;10.672;2024-01-30T02:39:33;7.27;;;6.37;;
30133;SDS011;16946;49.984;10.672;2024-01-30T02:40:04;10.27;;;6.93;;
30133;SDS011;16946;49.984;10.672;2024-01-30T02:40:35;9.35;;;6.97;;
30133;SDS011;16946;49.984;10.672;2024-01-30T02:41:06;8.00;;;6.27;;
30133;SDS011;16946;49.984;10.672;2024-01-30T02:41:36;8.63;;;5.93;;
30133;SDS011;16946;49.984;10.672;2024-01-30T02:42:07;7.23;;;6.37;;
30133;SDS011;16946;49.984;10.672;2024-01-30T02:42:37;12.97;;;7.27;;
30133;SDS011;16946;49.984;10.672;2024-01-30T02:43:09;11.07;;;7.55;;
30133;SDS011;16946;49.984;10.672;2024-01-30T02:43:39;7.00;;;6.20;;
30133;SDS011;16946;49.984;10.672;2024-01-30T02:44:10;12.43;;;7.00;;
30133;SDS011;16946;49.984;10.672;2024-01-30T02:44:40;10.20;;;6.90;;
30133;SDS011;16946;49.984;10.672;2024-01-30T02:45:11;9.10;;;6.87;;
30133;SDS011;16946;49.984;10.672;2024-01-30T02:45:42;8.73;;;6.72;;
30133;SDS011;16946;49.984;10.672;2024-01-30T02:46:13;12.53;;;7.60;;
30133;SDS011;16946;49.984;10.672;2024-01-30T02:46:43;7.80;;;6.97;;
30133;SDS011;16946;49.984;10.672;2024-01-30T02:47:14;7.30;;;6.60;;
30133;SDS011;16946;49.984;10.672;2024-01-30T02:47:45;8.03;;;6.57;;
30133;SDS011;16946;49.984;10.672;2024-01-30T02:48:15;8.35;;;7.10;;
30133;SDS011;16946;49.984;10.672;2024-01-30T02:48:46;7.83;;;6.80;;
30133;SDS011;16946;49.984;10.672;2024-01-30T02:49:17;9.00;;;6.73;;
30133;SDS011;16946;49.984;10.672;2024-01-30T02:49:47;7.67;;;6.83;;
30133;SDS011;16946;49.984;10.672;2024-01-30T02:50:18;9.80;;;7.10;;
30133;SDS011;16946;49.984;10.672;2024-01-30T02:50:48;8.27;;;6.40;;
30133;SDS011;16946;49.984;10.672;2024-01-30T02:51:19;9.13;;;6.77;;
30133;SDS011;16946;49.984;10.672;2024-01-30T02:51:49;9.77;;;6.93;;
30133;SDS011;16946;49.984;10.672;2024-01-30T02:52:21;10.43;;;7.20;;
30133;SDS011;16946;49.984;10.672;2024-01-30T02:52:52;13.40;;;6.70;;
30133;SDS011;16946;49.984;10.672;2024-01-30T02:53:22;10.67;;;6.77;;
30133;SDS011;16946;49.984;10.672;2024-01-30T02:53:52;8.20;;;6.27;;
30133;SDS011;16946;49.984;10.672;2024-01-30T02:54:23;8.73;;;6.67;;
30133;SDS011;16946;49.984;10.672;2024-01-30T02:54:54;11.97;;;6.50;;
30133;SDS011;16946;49.984;10.672;2024-01-30T02:55:24;11.43;;;7.10;;
30133;SDS011;16946;49.984;10.672;2024-01-30T02:55:55;7.37;;;5.70;;
30133;SDS011;16946;49.984;10.672;2024-01-30T02:56:25;8.37;;;6.40;;
30133;SDS011;16946;49.984;10.672;2024-01-30T02:56:56;9.17;;;6.03;;
30133;SDS011;16946;49.984;10.672;2024-01-30T02:57:26;7.60;;;6.40;;
30133;SDS011;16946;49.984;10.672;2024-01-30T02:57:57;7.22;;;6.53;;
30133;SDS011;16946;49.984;10.672;2024-01-30T02:58:28;9.03;;;7.10;;
30133;SDS011;16946;49.984;10.672;2024-01-30T02:58:58;7.00;;;6.33;;
30133;SDS011;16946;49.984;10.672;2024-01-30T02:59:29;11.57;;;6.53;;
30133;SDS011;16946;49.984;10.672;2024-01-30T03:00:00;12.63;;;6.30;;
30133;SDS011;16946;49.984;10.672;2024-01-30T03:00:31;12.23;;;7.18;;
30133;SDS011;16946;49.984;10.672;2024-01-30T03:01:01;8.87;;;6.70;;
30133;SDS011;16946;49.984;10.672;2024-01-30T03:01:32;8.60;;;6.40;;
30133;SDS011;16946;49.984;10.672;2024-01-30T03:02:02;7.90;;;6.57;;
30133;SDS011;16946;49.984;10.672;2024-01-30T03:02:33;6.60;;;6.00;;